createdAt,value
2018-12-23T00:03:28.722Z,99829.00
2018-12-23T00:06:02.320Z,99831.58
2018-12-23T00:08:33.955Z,99841.55
2018-12-23T00:11:08.019Z,99838.31
2018-12-23T00:13:42.064Z,99836.73
2018-12-23T00:16:13.471Z,99841.23
2018-12-23T00:18:46.411Z,99837.26
2018-12-23T00:21:20.868Z,99838.34
2018-12-23T00:23:49.001Z,99833.99
2018-12-23T00:26:17.197Z,99833.61
2018-12-23T00:28:45.311Z,99840.70
2018-12-23T00:31:13.495Z,99849.28
2018-12-23T00:33:47.628Z,99848.14
2018-12-23T00:36:17.445Z,99857.81
2018-12-23T00:38:49.174Z,99861.21
2018-12-23T00:41:20.272Z,99853.80
2018-12-23T00:43:52.164Z,99862.19
2018-12-23T00:46:22.131Z,99861.08
2018-12-23T00:48:56.420Z,99860.98
2018-12-23T00:51:31.121Z,99864.63
2018-12-23T00:54:02.941Z,99866.78
2018-12-23T00:56:34.607Z,99875.17
2018-12-23T00:59:08.217Z,99875.05
2018-12-23T01:01:36.362Z,99887.89
2018-12-23T01:04:10.371Z,99895.95
2018-12-23T01:06:42.161Z,99880.13
2018-12-23T01:09:14.044Z,99899.31
2018-12-23T01:11:46.361Z,99892.80
2018-12-23T01:14:17.894Z,99886.84
2018-12-23T01:16:51.677Z,99888.61
2018-12-23T01:19:25.681Z,99892.29
2018-12-23T01:21:57.432Z,99891.80
2018-12-23T01:24:31.724Z,99894.79
2018-12-23T01:26:59.850Z,99890.53
2018-12-23T01:29:33.974Z,99895.30
2018-12-23T01:32:07.823Z,99900.38
2018-12-23T01:34:39.172Z,99910.16
2018-12-23T01:37:13.646Z,99912.36
2018-12-23T01:39:45.349Z,99925.87
2018-12-23T01:42:19.882Z,99934.49
2018-12-23T01:44:51.459Z,99934.25
2018-12-23T01:47:23.888Z,99942.19
2018-12-23T01:49:56.150Z,99938.69
2018-12-23T01:52:28.194Z,99940.91
2018-12-23T01:54:59.327Z,99925.55
2018-12-23T01:57:31.367Z,99947.29
2018-12-23T02:00:07.569Z,99947.02
2018-12-23T02:02:40.898Z,99951.48
2018-12-23T02:05:12.505Z,99948.62
2018-12-23T02:07:44.521Z,99953.50
2018-12-23T02:10:18.165Z,99946.58
2018-12-23T02:12:52.187Z,99946.55
2018-12-23T02:15:24.317Z,99944.86
2018-12-23T02:17:56.065Z,99951.55
2018-12-23T02:20:28.288Z,99954.53
2018-12-23T02:23:02.659Z,99949.09
2018-12-23T02:25:36.611Z,99952.33
2018-12-23T02:28:08.659Z,99963.67
2018-12-23T02:30:40.524Z,99970.94
2018-12-23T02:33:13.430Z,99966.78
2018-12-23T02:35:55.263Z,99962.87
2018-12-23T02:38:21.079Z,99958.98
2018-12-23T02:40:53.234Z,99952.05
2018-12-23T02:43:22.559Z,99954.41
2018-12-23T02:45:53.821Z,99956.48
2018-12-23T02:48:28.221Z,99966.28
2018-12-23T02:51:02.362Z,99961.46
2018-12-23T02:53:33.734Z,99941.40
2018-12-23T02:56:08.266Z,99954.74
2018-12-23T02:58:40.478Z,99957.89
2018-12-23T03:01:14.431Z,99951.45
2018-12-23T03:03:45.755Z,99951.72
2018-12-23T03:06:20.389Z,99958.91
2018-12-23T03:08:52.944Z,99972.27
2018-12-23T03:11:27.369Z,99964.08
2018-12-23T03:13:56.788Z,99962.94
2018-12-23T03:16:27.989Z,99966.60
2018-12-23T03:19:00.351Z,99967.38
2018-12-23T03:21:32.537Z,99968.63
2018-12-23T03:24:04.186Z,99963.66
2018-12-23T03:26:34.258Z,99925.71
2018-12-23T03:29:08.561Z,99960.90
2018-12-23T03:31:40.182Z,99957.92
2018-12-23T03:34:14.532Z,99958.93
2018-12-23T03:36:48.597Z,99956.45
2018-12-23T03:39:19.989Z,99958.93
2018-12-23T03:41:57.959Z,99965.64
2018-12-23T03:44:29.143Z,99971.39
2018-12-23T03:47:02.964Z,99965.46
2018-12-23T03:49:34.562Z,99968.27
2018-12-23T03:52:06.567Z,99975.30
2018-12-23T03:54:37.681Z,99976.27
2018-12-23T03:57:06.831Z,99841.23
2018-12-23T03:59:40.620Z,99972.92
2018-12-23T04:02:12.181Z,99973.94
2018-12-23T04:04:46.767Z,99973.00
2018-12-23T04:07:19.357Z,99970.50
2018-12-23T04:09:54.904Z,99977.70
2018-12-23T04:12:26.496Z,99963.07
2018-12-23T04:14:57.783Z,99962.33
2018-12-23T04:17:32.245Z,99962.37
2018-12-23T04:20:06.369Z,99960.88
2018-12-23T04:22:40.531Z,99950.88
2018-12-23T04:25:12.197Z,99946.25
2018-12-23T04:27:47.580Z,99955.47
2018-12-23T04:30:21.847Z,99960.73
2018-12-23T04:32:51.527Z,99857.72
2018-12-23T04:35:26.048Z,99960.23
2018-12-23T04:38:00.044Z,99959.31
2018-12-23T04:40:31.382Z,99955.89
2018-12-23T04:43:03.381Z,99954.64
2018-12-23T04:45:37.105Z,99961.54
2018-12-23T04:48:08.717Z,99957.86
2018-12-23T04:50:40.777Z,99950.88
2018-12-23T04:53:12.702Z,99953.09
2018-12-23T04:55:47.249Z,99948.25
2018-12-23T04:58:18.949Z,99952.39
2018-12-23T05:00:50.457Z,99951.74
2018-12-23T05:03:24.894Z,99947.17
2018-12-23T05:05:56.705Z,99941.64
2018-12-23T05:08:28.157Z,99947.42
2018-12-23T05:11:00.265Z,99948.72
2018-12-23T05:13:34.211Z,99959.05
2018-12-23T05:16:08.608Z,99961.66
2018-12-23T05:18:40.035Z,99962.97
2018-12-23T05:21:13.724Z,99967.70
2018-12-23T05:23:47.789Z,99967.22
2018-12-23T05:26:19.772Z,99970.45
2018-12-23T05:28:52.016Z,99976.20
2018-12-23T05:31:26.991Z,99970.17
2018-12-23T05:34:00.701Z,99970.09
2018-12-23T05:36:30.170Z,99981.34
2018-12-23T05:39:05.228Z,99990.16
2018-12-23T05:41:36.389Z,99989.30
2018-12-23T05:44:10.827Z,99996.49
2018-12-23T05:46:45.047Z,99751.98
2018-12-23T05:49:16.792Z,99998.53
2018-12-23T05:51:51.149Z,99992.11
2018-12-23T05:54:22.781Z,99987.59
2018-12-23T05:56:54.544Z,99985.34
2018-12-23T05:59:27.320Z,99988.91
2018-12-23T06:02:01.295Z,99981.88
2018-12-23T06:04:33.019Z,99987.59
2018-12-23T06:07:04.284Z,99995.45
2018-12-23T06:09:36.471Z,99994.22
2018-12-23T06:12:09.077Z,99994.90
2018-12-23T06:14:40.725Z,99996.56
2018-12-23T06:17:14.826Z,99998.95
2018-12-23T06:19:47.187Z,99994.53
2018-12-23T06:22:19.077Z,99991.38
2018-12-23T06:24:51.420Z,99995.92
2018-12-23T06:27:23.299Z,100001.33
2018-12-23T06:29:59.657Z,100004.75
2018-12-23T06:32:34.112Z,100007.66
2018-12-23T06:35:05.861Z,100007.41
2018-12-23T06:37:37.872Z,99999.34
2018-12-23T06:40:12.427Z,99999.41
2018-12-23T06:42:46.428Z,99997.29
2018-12-23T06:45:18.308Z,99997.12
2018-12-23T06:50:18.281Z,100008.66
2018-12-23T06:52:50.163Z,100003.34
2018-12-23T06:55:22.950Z,100011.05
2018-12-23T06:57:55.726Z,100009.87
2018-12-23T07:00:27.406Z,100008.36
2018-12-23T07:02:56.950Z,100007.36
2018-12-23T07:05:28.937Z,100002.15
2018-12-23T07:08:00.742Z,100004.50
2018-12-23T07:10:35.307Z,100002.02
2018-12-23T07:13:06.860Z,100003.49
2018-12-23T07:15:38.954Z,100006.22
2018-12-23T07:18:11.085Z,100009.79
2018-12-23T07:20:42.852Z,100010.00
2018-12-23T07:23:14.852Z,100010.20
2018-12-23T07:25:44.741Z,100014.53
2018-12-23T07:28:16.746Z,100014.53
2018-12-23T07:30:48.709Z,100011.97
2018-12-23T07:33:18.780Z,99955.83
2018-12-23T07:35:50.705Z,100003.33
2018-12-23T07:38:22.704Z,100011.88
2018-12-23T07:40:54.732Z,100015.01
2018-12-23T07:43:29.073Z,100017.89
2018-12-23T07:46:02.262Z,100015.35
2018-12-23T07:48:34.704Z,100016.06
2018-12-23T07:51:05.981Z,100007.96
2018-12-23T07:53:39.608Z,100007.24
2018-12-23T07:56:11.422Z,100000.66
2018-12-23T07:58:43.423Z,100003.56
2018-12-23T08:01:14.627Z,100007.41
2018-12-23T08:03:45.727Z,100004.70
2018-12-23T08:06:17.017Z,100004.64
2018-12-23T08:08:48.229Z,100008.31
2018-12-23T08:11:20.226Z,100004.11
2018-12-23T08:13:54.636Z,100007.98
2018-12-23T08:16:26.323Z,100009.66
2018-12-23T08:19:00.655Z,100005.80
2018-12-23T08:21:32.734Z,100003.70
2018-12-23T08:24:04.510Z,100008.02
2018-12-23T08:26:35.768Z,100010.38
2018-12-23T08:29:09.359Z,100012.95
2018-12-23T08:31:41.236Z,100010.12
2018-12-23T08:34:14.907Z,100011.02
2018-12-23T08:36:46.613Z,100007.36
2018-12-23T08:39:16.816Z,99808.14
2018-12-23T08:41:49.012Z,99999.32
2018-12-23T08:44:21.497Z,99994.80
2018-12-23T08:46:55.413Z,100000.79
2018-12-23T08:49:27.358Z,100001.31
2018-12-23T08:52:01.545Z,99997.70
2018-12-23T08:54:35.632Z,100000.88
2018-12-23T08:57:09.792Z,99998.30
2018-12-23T08:59:39.441Z,99997.83
2018-12-23T09:02:11.436Z,99985.40
2018-12-23T09:04:45.036Z,99993.98
2018-12-23T09:07:16.676Z,99984.00
2018-12-23T09:09:48.674Z,99987.02
2018-12-23T09:12:22.331Z,99979.79
2018-12-23T09:14:53.811Z,99986.73
2018-12-23T09:17:23.035Z,99961.52
2018-12-23T09:19:57.594Z,99975.41
2018-12-23T09:22:29.272Z,99971.45
2018-12-23T09:25:00.425Z,99974.27
2018-12-23T09:27:30.275Z,99967.69
2018-12-23T09:30:05.631Z,99965.91
2018-12-23T09:32:39.435Z,99966.91
2018-12-23T09:35:13.288Z,99964.13
2018-12-23T09:37:44.961Z,99971.57
2018-12-23T09:40:19.346Z,99964.97
2018-12-23T09:42:53.487Z,99960.84
2018-12-23T09:45:23.172Z,99955.75
2018-12-23T09:47:54.345Z,99953.44
2018-12-23T09:50:25.643Z,99951.75
2018-12-23T09:53:00.268Z,99947.50
2018-12-23T09:55:29.891Z,99948.95
2018-12-23T09:57:59.926Z,99939.41
2018-12-23T10:00:29.074Z,99935.45
2018-12-23T10:03:01.114Z,99935.28
2018-12-23T10:05:32.322Z,99928.89
2018-12-23T10:08:09.899Z,99924.45
2018-12-23T10:10:40.174Z,99924.30
2018-12-23T10:13:11.605Z,99924.30
2018-12-23T10:15:43.380Z,99921.49
2018-12-23T10:18:14.674Z,99918.70
2018-12-23T10:20:46.781Z,99908.02
2018-12-23T10:23:19.097Z,99909.00
2018-12-23T10:25:52.211Z,99912.11
2018-12-23T10:28:23.363Z,99902.90
2018-12-23T10:30:54.754Z,99899.44
2018-12-23T10:33:26.818Z,99894.31
2018-12-23T10:35:58.180Z,99891.84
2018-12-23T10:38:29.471Z,99890.02
2018-12-23T10:41:01.517Z,99881.62
2018-12-23T10:43:33.443Z,99880.96
2018-12-23T10:46:05.374Z,99871.59
2018-12-23T10:48:39.307Z,99865.64
2018-12-23T10:51:11.261Z,99861.83
2018-12-23T10:56:13.668Z,99852.45
2018-12-23T10:58:47.997Z,99854.27
2018-12-23T11:01:20.079Z,99843.89
2018-12-23T11:03:53.700Z,99845.38
2018-12-23T11:13:50.627Z,99837.19
2018-12-23T11:16:25.877Z,99828.92
2018-12-23T11:18:55.277Z,99828.12
2018-12-23T11:21:27.244Z,99820.05
2018-12-23T11:24:01.792Z,99808.67
2018-12-23T11:26:33.365Z,99801.74
2018-12-23T11:29:05.523Z,99798.13
2018-12-23T11:31:40.272Z,99798.13
2018-12-23T11:34:12.394Z,99782.30
2018-12-23T11:36:47.169Z,99782.31
2018-12-23T11:39:18.515Z,99776.34
2018-12-23T11:44:46.440Z,99765.20
2018-12-23T11:47:20.665Z,99753.66
2018-12-23T11:49:52.006Z,99749.06
2018-12-23T11:52:25.562Z,99743.02
2018-12-23T11:54:55.631Z,99667.12
2018-12-23T11:57:29.463Z,99736.64
2018-12-23T12:00:01.262Z,99735.64
2018-12-23T12:02:32.518Z,99729.88
2018-12-23T12:05:06.632Z,99717.72
2018-12-23T12:07:36.285Z,99715.61
2018-12-23T12:10:08.381Z,99720.88
2018-12-23T12:15:09.515Z,99724.68
2018-12-23T12:17:37.753Z,99715.96
2018-12-23T12:20:10.292Z,99723.08
2018-12-23T12:22:44.304Z,99712.22
2018-12-23T12:25:15.863Z,99710.23
2018-12-23T12:27:47.728Z,99705.92
2018-12-23T12:30:22.007Z,99703.77
2018-12-23T12:32:54.130Z,99695.37
2018-12-23T12:35:27.019Z,99684.98
2018-12-23T12:38:02.233Z,99686.59
2018-12-23T12:40:35.336Z,99542.55
2018-12-23T12:43:06.583Z,99686.55
2018-12-23T12:45:36.719Z,99674.20
2018-12-23T12:48:08.666Z,99667.31
2018-12-23T12:50:38.083Z,99662.06
2018-12-23T12:53:11.989Z,99660.30
2018-12-23T12:55:44.304Z,99654.88
2018-12-23T12:58:15.819Z,99645.86
2018-12-23T13:00:47.915Z,99644.73
2018-12-23T13:03:24.549Z,99604.68
2018-12-23T13:06:02.233Z,99639.38
2018-12-23T13:08:36.926Z,99637.23
2018-12-23T13:11:08.853Z,99637.59
2018-12-23T13:13:40.125Z,99636.26
2018-12-23T13:16:15.270Z,99632.67
2018-12-23T13:18:49.610Z,99634.97
2018-12-23T13:21:25.788Z,99636.14
2018-12-23T13:23:57.543Z,99631.53
2018-12-23T13:26:26.785Z,99614.25
2018-12-23T13:28:59.023Z,99609.30
2018-12-23T13:31:33.574Z,99602.72
2018-12-23T13:34:05.249Z,99603.38
2018-12-23T13:36:39.936Z,99596.94
2018-12-23T13:39:11.891Z,99595.13
2018-12-23T13:43:59.693Z,99596.14
2018-12-23T13:47:18.100Z,99587.27
2018-12-23T13:50:10.601Z,99586.62
2018-12-23T13:55:04.831Z,99587.81
2018-12-23T13:57:49.286Z,99577.00
2018-12-23T14:00:37.598Z,99580.13
2018-12-23T14:03:31.186Z,99576.19
2018-12-23T14:06:31.551Z,99570.94
2018-12-23T14:11:33.610Z,99567.16
2018-12-23T14:14:05.282Z,99553.05
2018-12-23T14:16:37.356Z,99546.00
2018-12-23T14:19:10.672Z,99545.00
2018-12-23T14:21:42.454Z,99548.78
2018-12-23T14:24:14.205Z,99542.20
2018-12-23T14:26:46.295Z,99535.83
2018-12-23T14:29:18.391Z,99537.80
2018-12-23T14:31:52.720Z,99537.11
2018-12-23T14:34:26.752Z,99528.41
2018-12-23T14:36:58.189Z,99522.19
2018-12-23T14:39:30.066Z,99520.34
2018-12-23T14:42:02.208Z,99523.32
2018-12-23T14:44:34.170Z,99517.07
2018-12-23T14:47:08.566Z,99518.58
2018-12-23T14:49:40.389Z,99368.55
2018-12-23T14:52:12.825Z,99503.94
2018-12-23T14:54:44.677Z,99496.88
2018-12-23T14:57:16.700Z,99492.97
2018-12-23T14:59:47.838Z,99489.52
2018-12-23T15:02:18.952Z,99482.45
2018-12-23T15:04:50.984Z,99481.31
2018-12-23T15:07:23.974Z,99479.82
2018-12-23T15:09:55.988Z,99479.83
2018-12-23T15:12:28.111Z,99472.61
2018-12-23T15:15:02.666Z,99468.17
2018-12-23T15:17:33.969Z,99457.35
2018-12-23T15:20:07.573Z,99451.91
2018-12-23T15:22:39.703Z,99443.07
2018-12-23T15:25:14.250Z,99433.20
2018-12-23T15:27:45.582Z,99426.97
2018-12-23T15:30:17.740Z,99417.27
2018-12-23T15:32:50.140Z,99412.17
2018-12-23T15:35:22.218Z,99410.39
2018-12-23T15:37:51.753Z,99351.80
2018-12-23T15:40:26.381Z,99394.77
2018-12-23T15:42:57.742Z,99390.52
2018-12-23T15:45:32.146Z,99376.41
2018-12-23T15:48:06.554Z,99376.92
2018-12-23T15:50:40.854Z,99374.61
2018-12-23T15:53:15.449Z,99367.05
2018-12-23T15:55:49.726Z,99364.91
2018-12-23T15:58:21.577Z,99362.77
2018-12-23T16:00:52.917Z,99364.41
2018-12-23T16:03:25.075Z,99367.36
2018-12-23T16:05:55.018Z,99359.34
2018-12-23T16:08:27.112Z,99359.33
2018-12-23T16:10:58.371Z,99359.81
2018-12-23T16:13:32.754Z,99355.72
2018-12-23T16:16:04.476Z,99350.80
2018-12-23T16:18:36.609Z,99355.08
2018-12-23T16:21:10.552Z,99337.84
2018-12-23T16:23:43.859Z,99338.98
2018-12-23T16:26:21.141Z,99330.95
2018-12-23T16:28:52.609Z,99330.28
2018-12-23T16:31:27.077Z,99321.92
2018-12-23T16:34:01.361Z,99310.77
2018-12-23T16:36:39.388Z,99301.25
2018-12-23T16:39:13.009Z,99299.61
2018-12-23T16:41:44.517Z,99298.30
2018-12-23T16:44:18.929Z,99290.28
2018-12-23T16:46:50.407Z,99282.39
2018-12-23T16:49:22.398Z,99275.17
2018-12-23T16:51:54.213Z,99274.67
2018-12-23T16:54:25.400Z,99271.37
2018-12-23T16:56:57.281Z,99267.77
2018-12-23T16:59:29.733Z,99275.16
2018-12-23T17:02:03.850Z,99275.48
2018-12-23T17:04:37.844Z,99274.36
2018-12-23T17:07:09.334Z,99264.34
2018-12-23T17:09:42.690Z,99255.49
2018-12-23T17:12:14.731Z,99253.19
2018-12-23T17:14:46.761Z,99242.36
2018-12-23T17:17:18.119Z,99189.93
2018-12-23T17:19:50.151Z,99218.07
2018-12-23T17:22:24.225Z,99219.08
2018-12-23T17:24:55.943Z,99206.62
2018-12-23T17:27:26.816Z,99202.34
2018-12-23T17:29:58.002Z,99206.61
2018-12-23T17:32:29.341Z,99201.72
2018-12-23T17:35:00.611Z,99203.34
2018-12-23T17:37:32.028Z,99216.12
2018-12-23T17:40:03.750Z,99213.84
2018-12-23T17:42:35.215Z,99214.34
2018-12-23T17:45:06.891Z,99212.86
2018-12-23T17:47:41.263Z,99211.22
2018-12-23T17:50:12.843Z,99216.30
2018-12-23T17:52:44.055Z,99209.08
2018-12-23T17:55:15.425Z,99205.48
2018-12-23T17:57:48.985Z,99192.67
2018-12-23T18:00:20.729Z,99182.00
2018-12-23T18:02:52.806Z,99176.93
2018-12-23T18:05:24.893Z,99166.26
2018-12-23T18:07:56.756Z,99161.53
2018-12-23T18:10:28.938Z,99087.72
2018-12-23T18:13:03.800Z,99157.13
2018-12-23T18:15:35.907Z,99163.52
2018-12-23T18:18:07.826Z,99152.34
2018-12-23T18:20:39.977Z,99148.91
2018-12-23T18:23:11.936Z,99152.47
2018-12-23T18:25:46.235Z,99142.66
2018-12-23T18:28:16.182Z,99129.67
2018-12-23T18:30:50.709Z,99127.55
2018-12-23T18:33:22.465Z,99114.92
2018-12-23T18:35:54.265Z,99108.50
2018-12-23T18:38:24.332Z,99098.98
2018-12-23T18:40:56.459Z,99106.52
2018-12-23T18:43:31.045Z,99102.11
2018-12-23T18:46:02.381Z,99099.14
2018-12-23T18:48:35.037Z,99088.80
2018-12-23T18:51:06.506Z,99082.38
2018-12-23T18:53:38.585Z,99071.37
2018-12-23T18:56:10.858Z,99069.23
2018-12-23T18:58:42.997Z,99057.95
2018-12-23T19:01:16.429Z,99049.23
2018-12-23T19:03:48.473Z,99054.80
2018-12-23T19:06:20.356Z,99059.23
2018-12-23T19:09:05.370Z,99058.92
2018-12-23T19:11:57.114Z,99044.14
2018-12-23T19:14:43.579Z,99038.54
2018-12-23T19:18:05.202Z,99039.41
2018-12-23T19:20:50.199Z,99037.28
2018-12-23T19:23:44.698Z,99027.25
2018-12-23T19:27:44.387Z,99024.44
2018-12-23T19:31:02.672Z,99025.94
2018-12-23T19:35:53.824Z,99016.28
2018-12-23T19:38:39.973Z,99013.71
2018-12-23T19:41:48.168Z,99011.39
2018-12-23T19:45:06.684Z,99003.13
2018-12-23T19:49:58.432Z,99000.02
2018-12-23T19:54:48.841Z,98999.25
2018-12-23T19:57:45.407Z,98980.78
2018-12-23T20:00:44.862Z,98972.87
2018-12-23T20:04:36.080Z,98970.70
2018-12-23T20:07:31.411Z,98978.74
2018-12-23T20:10:21.876Z,98974.34
2018-12-23T20:13:11.402Z,98783.92
2018-12-23T20:16:05.947Z,98975.78
2018-12-23T20:21:33.069Z,98963.98
2018-12-23T20:25:33.659Z,98968.09
2018-12-23T20:28:32.600Z,98955.64
2018-12-23T20:31:22.921Z,98959.06
2018-12-23T20:36:25.702Z,98961.48
2018-12-23T20:41:22.623Z,98939.12
2018-12-23T20:45:25.998Z,98922.98
2018-12-23T20:48:12.547Z,98906.37
2018-12-23T20:53:03.459Z,98734.69
2018-12-23T20:55:49.955Z,98894.31
2018-12-23T20:58:41.885Z,98909.78
2018-12-23T21:01:41.973Z,98910.59
2018-12-23T21:04:55.668Z,98905.66
2018-12-23T21:09:47.004Z,98892.97
2018-12-23T21:12:45.598Z,98868.52
2018-12-23T21:16:10.074Z,98870.14
2018-12-23T21:20:59.508Z,98858.29
2018-12-23T21:30:08.487Z,98864.17
2018-12-23T21:35:05.714Z,98854.25
2018-12-23T21:40:00.278Z,98862.92
2018-12-23T21:43:03.695Z,98860.39
2018-12-23T21:45:50.745Z,98858.30
2018-12-23T21:50:56.958Z,98855.19
2018-12-23T21:53:47.655Z,98849.86
2018-12-23T21:56:39.751Z,98860.75
2018-12-23T22:00:44.096Z,98862.10
2018-12-23T22:04:30.530Z,98853.27
2018-12-23T22:07:42.062Z,98860.81
2018-12-23T22:11:12.743Z,98849.78
2018-12-23T22:13:40.537Z,98836.97
2018-12-23T22:16:08.406Z,98834.72
2018-12-23T22:18:36.260Z,98837.19
2018-12-23T22:21:04.214Z,98837.38
2018-12-23T22:23:34.095Z,98820.61
2018-12-23T22:26:03.459Z,98816.66
2018-12-23T22:28:31.419Z,98814.19
2018-12-23T22:30:59.233Z,98804.53
2018-12-23T22:33:26.972Z,98814.54
2018-12-23T22:35:54.853Z,98812.73
2018-12-23T22:38:22.684Z,98809.09
2018-12-23T22:41:05.570Z,98813.67
2018-12-23T22:43:33.351Z,98798.88
2018-12-23T22:46:01.221Z,98787.19
2018-12-23T22:48:28.999Z,98792.55
2018-12-23T22:50:57.076Z,98794.13
2018-12-23T22:53:24.877Z,98797.05
2018-12-23T22:55:52.768Z,98801.73
2018-12-23T22:58:20.591Z,98793.33
2018-12-23T23:00:53.711Z,98796.39
2018-12-23T23:03:21.553Z,98806.01
2018-12-23T23:05:49.416Z,98808.33
2018-12-23T23:08:17.235Z,98799.67
2018-12-23T23:10:50.214Z,98801.23
2018-12-23T23:13:18.674Z,98807.50
2018-12-23T23:15:46.870Z,98799.92
2018-12-23T23:18:14.707Z,98802.95
2018-12-23T23:20:42.500Z,98795.45
2018-12-23T23:23:10.294Z,98782.88
2018-12-23T23:25:38.129Z,98776.91
2018-12-23T23:28:05.905Z,98779.17
2018-12-23T23:30:33.839Z,98766.99
2018-12-23T23:33:01.647Z,98761.19
2018-12-23T23:35:29.453Z,98767.53
2018-12-23T23:37:57.330Z,98785.94
2018-12-23T23:40:25.277Z,98788.55
2018-12-23T23:42:53.079Z,98794.78
2018-12-23T23:45:20.960Z,98804.25
2018-12-23T23:47:48.737Z,98819.39
2018-12-23T23:50:16.599Z,98843.17
2018-12-23T23:52:44.477Z,98862.09
2018-12-23T23:55:12.326Z,98854.19
2018-12-23T23:57:40.121Z,98856.91
